Time;durP1;ratioP1;P1;durP2;ratioP2;P2;SDS_P1;SDS_P2;PMS_P1;PMS_P2;Temp;Humidity;BMP_temperature;BMP_pressure;BME280_temperature;BME280_humidity;BME280_pressure;Samples;Min_cycle;Max_cycle;Signal;HPM_P1;HPM_P2
2022/08/17 00:01:26;;;;;;;14.77;7.82;;;;;;;19.15;81.02;98785.75;8386333;28;20037;-77
2022/08/17 00:05:29;;;;;;;14.27;7.72;;;;;;;19.11;81.30;98779.44;8351466;28;20076;-77
2022/08/17 00:09:30;;;;;;;11.25;7.53;;;;;;;19.07;81.24;98784.88;8372355;28;20122;-78
2022/08/17 00:13:36;;;;;;;12.25;7.57;;;;;;;19.03;81.69;98786.00;8379700;28;20499;-77
2022/08/17 00:17:38;;;;;;;12.27;7.82;;;;;;;19.04;81.48;98784.81;8384808;28;20462;-77
2022/08/17 00:21:41;;;;;;;12.52;7.60;;;;;;;18.99;81.53;98794.94;8389066;28;20048;-77
2022/08/17 00:25:44;;;;;;;13.30;7.97;;;;;;;18.95;81.84;98791.38;8381754;28;20491;-78
2022/08/17 00:29:45;;;;;;;14.00;7.78;;;;;;;18.90;81.79;98797.16;8374590;28;20493;-77
2022/08/17 00:33:46;;;;;;;13.73;7.80;;;;;;;18.87;82.12;98791.66;8388457;28;20052;-77
2022/08/17 00:37:48;;;;;;;9.48;7.85;;;;;;;18.83;82.39;98788.84;8383220;28;20614;-77
2022/08/17 00:41:49;;;;;;;12.80;7.20;;;;;;;18.83;82.47;98783.38;8329025;28;20076;-77
2022/08/17 00:45:50;;;;;;;14.18;7.68;;;;;;;18.81;82.30;98788.47;8387532;28;20044;-78
2022/08/17 00:49:51;;;;;;;9.60;7.93;;;;;;;18.77;82.38;98793.06;8384610;28;20040;-77
2022/08/17 00:53:57;;;;;;;12.48;7.75;;;;;;;18.73;82.66;98797.72;8385059;28;20454;-76
2022/08/17 00:58:01;;;;;;;10.77;8.13;;;;;;;18.66;82.88;98797.63;8383036;28;20053;-77
2022/08/17 01:02:02;;;;;;;12.15;8.20;;;;;;;18.64;83.12;98789.00;8368803;28;20040;-77
2022/08/17 01:06:05;;;;;;;10.85;7.85;;;;;;;18.61;83.22;98795.22;8383141;28;20512;-78
2022/08/17 01:10:10;;;;;;;16.60;7.45;;;;;;;18.63;83.07;98798.34;8303949;28;20050;-77
2022/08/17 01:14:11;;;;;;;10.43;8.00;;;;;;;18.57;83.25;98788.88;8222142;28;20663;-77
2022/08/17 01:18:13;;;;;;;11.20;7.93;;;;;;;18.54;83.34;98795.91;8222861;28;20051;-77
2022/08/17 01:22:24;;;;;;;15.13;8.48;;;;;;;18.52;83.54;98791.91;8223926;28;20097;-78
2022/08/17 01:26:25;;;;;;;15.23;8.23;;;;;;;18.51;83.40;98790.31;8221509;28;20039;-78
2022/08/17 01:30:27;;;;;;;14.48;8.93;;;;;;;18.48;83.51;98796.53;8217321;28;20054;-77
2022/08/17 01:34:28;;;;;;;11.95;8.18;;;;;;;18.45;83.68;98787.13;8217882;28;20113;-77
2022/08/17 01:38:30;;;;;;;14.45;8.45;;;;;;;18.47;83.62;98789.50;8226302;28;20474;-77
2022/08/17 01:42:45;;;;;;;12.70;8.70;;;;;;;18.44;84.23;98782.03;8293360;28;20050;-77
2022/08/17 01:46:46;;;;;;;11.75;9.38;;;;;;;18.44;84.10;98784.78;8338950;28;20484;-77
2022/08/17 01:50:49;;;;;;;12.63;8.63;;;;;;;18.40;84.18;98783.94;8390282;28;20404;-77
2022/08/17 01:54:51;;;;;;;13.20;8.82;;;;;;;18.36;84.25;98772.94;8395564;28;20549;-77
2022/08/17 01:58:52;;;;;;;13.38;9.02;;;;;;;18.35;84.16;98778.75;8404728;28;20053;-78
2022/08/17 02:02:53;;;;;;;10.90;8.25;;;;;;;18.30;84.22;98779.06;8390826;28;20060;-78
2022/08/17 02:06:54;;;;;;;13.52;9.18;;;;;;;18.22;84.90;98782.88;8385304;28;20094;-78
2022/08/17 02:10:55;;;;;;;10.63;8.68;;;;;;;18.18;85.03;98777.34;8358679;28;20040;-78
2022/08/17 02:14:56;;;;;;;11.68;8.20;;;;;;;18.18;84.94;98771.09;8385551;28;20105;-77
2022/08/17 02:18:57;;;;;;;10.60;8.52;;;;;;;18.13;85.33;98775.72;8349174;28;20139;-78
2022/08/17 02:23:01;;;;;;;15.00;9.48;;;;;;;18.08;85.63;98773.28;8390246;28;20055;-77
2022/08/17 02:27:02;;;;;;;12.10;9.15;;;;;;;18.07;85.84;98768.19;8375598;28;20060;-78
2022/08/17 02:31:07;;;;;;;13.60;9.45;;;;;;;18.02;86.01;98769.28;8390983;28;20068;-77
2022/08/17 02:35:08;;;;;;;15.57;9.00;;;;;;;18.01;86.17;98766.91;8394621;28;20055;-78
2022/08/17 02:39:10;;;;;;;13.13;8.40;;;;;;;18.03;86.00;98776.31;8387958;28;20036;-78
2022/08/17 02:43:12;;;;;;;11.40;8.80;;;;;;;18.00;85.82;98771.59;8391230;28;20405;-76
2022/08/17 02:47:14;;;;;;;13.95;9.23;;;;;;;18.00;86.22;98771.59;8367627;28;20452;-76
2022/08/17 02:51:14;;;;;;;13.98;9.05;;;;;;;17.97;86.24;98772.34;8369571;28;20177;-77
2022/08/17 02:55:24;;;;;;;14.25;9.00;;;;;;;17.92;86.55;98769.13;8386808;28;20106;-78
2022/08/17 02:59:25;;;;;;;13.98;10.15;;;;;;;17.88;86.73;98779.97;8384609;28;20084;-77
2022/08/17 03:03:26;;;;;;;13.02;9.90;;;;;;;17.88;86.48;98779.97;8381928;28;20061;-77
2022/08/17 03:07:28;;;;;;;15.35;10.30;;;;;;;17.89;86.54;98787.00;8387275;28;20040;-77
2022/08/17 03:11:29;;;;;;;14.20;9.93;;;;;;;17.86;86.90;98787.75;8385815;28;20036;-77
2022/08/17 03:15:32;;;;;;;15.48;10.77;;;;;;;17.83;86.86;98787.69;8360249;28;20049;-78
2022/08/17 03:19:33;;;;;;;13.63;10.18;;;;;;;17.79;86.92;98787.63;8387091;28;20036;-78
2022/08/17 03:23:39;;;;;;;14.13;9.93;;;;;;;17.75;86.99;98781.31;8391088;28;20072;-77
2022/08/17 03:27:40;;;;;;;12.80;10.13;;;;;;;17.72;87.28;98790.22;8390871;28;20479;-78
2022/08/17 03:31:41;;;;;;;12.75;10.38;;;;;;;17.72;87.37;98787.50;8387843;28;20052;-76
2022/08/17 03:35:43;;;;;;;14.65;10.57;;;;;;;17.69;87.29;98788.22;8329334;28;20041;-76
2022/08/17 03:39:44;;;;;;;17.33;10.93;;;;;;;17.67;87.32;98787.78;8327741;28;20501;-76
2022/08/17 03:43:45;;;;;;;16.58;9.82;;;;;;;17.64;87.30;98792.06;8329545;28;20057;-78
2022/08/17 03:56:42;;;;;;;18.30;10.38;;;;;;;17.55;87.99;98804.34;8322185;28;20464;-78
2022/08/17 04:00:44;;;;;;;13.05;10.90;;;;;;;17.55;88.16;98804.34;8327365;28;20041;-77
2022/08/17 04:04:49;;;;;;;13.70;10.70;;;;;;;17.57;88.25;98807.47;8329230;28;20110;-77
2022/08/17 04:08:50;;;;;;;14.63;10.40;;;;;;;17.59;88.14;98816.09;8331273;28;20045;-77
2022/08/17 04:12:57;;;;;;;15.15;10.90;;;;;;;17.62;88.19;98820.84;8307775;28;20485;-77
2022/08/17 04:16:58;;;;;;;13.23;10.30;;;;;;;17.66;88.16;98817.03;8328363;28;20041;-77
2022/08/17 04:20:58;;;;;;;14.35;11.27;;;;;;;17.70;88.09;98822.59;8329351;28;20132;-78
2022/08/17 04:25:13;;;;;;;19.23;11.23;;;;;;;17.76;88.40;98823.88;8308843;28;20481;-77
2022/08/17 04:29:15;;;;;;;14.75;10.90;;;;;;;17.80;88.25;98821.97;8327040;28;20128;-79
2022/08/17 04:33:20;;;;;;;21.63;12.55;;;;;;;17.87;88.55;98816.63;8348621;28;20057;-78
2022/08/17 04:37:24;;;;;;;18.35;11.10;;;;;;;17.89;88.40;98830.72;8335041;28;20064;-79
2022/08/17 04:45:48;;;;;;;16.33;11.40;;;;;;;17.96;88.50;98841.78;8395195;28;20556;-79
2022/08/17 04:49:49;;;;;;;17.13;11.45;;;;;;;18.05;88.63;98838.81;8393841;28;20135;-78
2022/08/17 04:53:52;;;;;;;19.85;11.15;;;;;;;18.13;88.42;98841.31;8356420;28;20458;-75
2022/08/17 04:57:54;;;;;;;13.13;10.85;;;;;;;18.25;88.10;98831.31;8338884;28;20045;-76
2022/08/17 05:15:42;;;;;;;12.88;10.50;;;;;;;18.84;94.69;98836.94;8565771;27;20399;-83
2022/08/17 05:19:43;;;;;;;13.02;9.98;;;;;;;18.92;93.30;98838.66;8557615;27;20482;-83
2022/08/17 05:23:44;;;;;;;19.42;11.68;;;;;;;19.08;92.66;98834.94;8541068;27;20078;-84
2022/08/17 05:27:45;;;;;;;16.83;11.38;;;;;;;19.22;92.73;98846.06;8559926;27;20050;-83
2022/08/17 05:31:46;;;;;;;14.43;11.85;;;;;;;19.37;92.40;98847.81;8558050;27;20043;-84
2022/08/17 05:35:49;;;;;;;18.13;11.50;;;;;;;19.47;91.42;98847.16;8544812;27;20066;-84
2022/08/17 05:39:50;;;;;;;19.23;12.52;;;;;;;19.56;90.67;98844.16;8559600;27;20050;-84
2022/08/17 05:43:51;;;;;;;21.58;12.15;;;;;;;19.67;90.38;98837.59;8544235;27;20558;-84
2022/08/17 05:47:52;;;;;;;16.75;11.98;;;;;;;19.78;89.85;98849.47;8546277;27;20039;-84
2022/08/17 05:52:15;;;;;;;16.95;11.18;;;;;;;19.96;89.81;98851.59;8536746;27;20046;-84
2022/08/17 05:56:39;;;;;;;20.77;12.27;;;;;;;20.19;89.35;98849.50;8540735;27;20038;-84
2022/08/17 06:00:51;;;;;;;20.83;12.00;;;;;;;20.32;88.87;98848.06;8556917;27;20045;-84
2022/08/17 06:05:10;;;;;;;22.52;12.80;;;;;;;20.44;88.67;98856.00;8557844;27;20463;-85
2022/08/17 06:09:28;;;;;;;17.25;12.18;;;;;;;20.58;89.03;98847.06;8556171;27;20054;-84
2022/08/17 06:13:41;;;;;;;20.70;11.30;;;;;;;20.69;88.89;98855.38;8529544;27;20059;-84
2022/08/17 06:17:42;;;;;;;16.42;11.30;;;;;;;20.81;88.16;98857.81;8532234;27;20046;-83
2022/08/17 06:21:46;;;;;;;12.63;10.45;;;;;;;20.94;87.24;98856.31;8516011;27;20055;-83
2022/08/17 06:25:51;;;;;;;13.98;10.23;;;;;;;21.05;86.37;98868.16;8494568;27;20054;-85
2022/08/17 06:30:24;;;;;;;15.07;11.38;;;;;;;21.18;86.75;98866.69;8509597;27;20556;-84
2022/08/17 06:34:28;;;;;;;14.82;11.10;;;;;;;21.33;86.36;98873.81;8316216;28;20075;-84
2022/08/17 06:38:42;;;;;;;16.92;10.23;;;;;;;21.47;85.59;98884.88;8394894;28;20378;-84
2022/08/17 06:42:58;;;;;;;11.90;9.23;;;;;;;21.60;84.19;98881.78;8361722;28;20049;-85
2022/08/17 06:47:21;;;;;;;14.13;9.68;;;;;;;21.76;83.39;98887.72;8362641;28;20041;-84
2022/08/17 06:51:29;;;;;;;14.85;10.40;;;;;;;21.94;82.16;98885.84;8344689;28;20071;-83
2022/08/17 06:55:36;;;;;;;12.90;9.48;;;;;;;22.06;81.39;98888.22;8349643;28;20048;-83
2022/08/17 06:59:48;;;;;;;16.15;10.10;;;;;;;22.20;80.48;98888.25;8344977;28;20049;-84
2022/08/17 07:03:56;;;;;;;14.68;9.43;;;;;;;22.41;79.34;98892.19;8352996;28;20548;-83
2022/08/17 07:08:10;;;;;;;15.85;9.57;;;;;;;22.63;77.86;98891.03;8344578;28;20049;-85
2022/08/17 07:12:16;;;;;;;13.23;9.85;;;;;;;22.79;77.06;98885.91;8448381;27;20051;-83
2022/08/17 07:16:22;;;;;;;15.70;9.43;;;;;;;22.88;77.17;98889.06;8534282;27;20463;-83
2022/08/17 07:20:23;;;;;;;13.60;10.10;;;;;;;23.05;76.18;98888.22;8503627;27;20047;-83
2022/08/17 07:25:00;;;;;;;13.15;10.52;;;;;;;23.27;75.02;98893.66;8444705;28;20427;-83
2022/08/17 07:29:01;;;;;;;18.33;9.90;;;;;;;23.40;74.39;98903.09;8278669;28;20053;-84
2022/08/17 07:33:12;;;;;;;14.25;9.73;;;;;;;23.56;73.49;98890.47;8330038;28;20578;-83
2022/08/17 07:37:18;;;;;;;19.00;10.85;;;;;;;23.66;73.54;98894.34;8327535;28;20072;-84
2022/08/17 07:41:19;;;;;;;16.33;10.57;;;;;;;23.73;73.38;98905.34;8335546;28;20071;-83
2022/08/17 07:49:44;;;;;;;13.18;9.85;;;;;;;24.06;72.29;98908.75;8324200;28;20056;-84
2022/08/17 07:53:48;;;;;;;16.45;10.15;;;;;;;24.09;72.79;98900.44;8344123;28;20060;-85
2022/08/17 07:57:56;;;;;;;15.43;10.27;;;;;;;24.22;71.99;98909.03;8358989;28;20068;-84
2022/08/17 08:01:57;;;;;;;15.95;10.40;;;;;;;24.30;72.25;98905.06;8396212;28;20047;-82
2022/08/17 08:06:00;;;;;;;12.40;9.88;;;;;;;24.39;72.37;98902.59;8499748;27;20100;-83
2022/08/17 08:10:37;;;;;;;14.55;10.27;;;;;;;24.56;71.04;98907.22;8513396;27;20127;-84
2022/08/17 08:14:38;;;;;;;15.07;10.18;;;;;;;24.69;70.82;98905.50;8359211;28;20098;-84
2022/08/17 08:18:44;;;;;;;24.05;11.40;;;;;;;24.82;69.87;98914.88;8359613;28;20143;-82
2022/08/17 08:23:41;;;;;;;20.40;10.90;;;;;;;24.97;69.75;98914.78;8359393;28;20492;-84
2022/08/17 08:28:05;;;;;;;16.55;10.68;;;;;;;25.10;69.30;98918.59;8165284;29;20079;-83
2022/08/17 08:32:32;;;;;;;21.73;11.20;;;;;;;25.25;68.71;98914.50;8149634;29;20696;-83
2022/08/17 08:36:55;;;;;;;17.10;9.85;;;;;;;25.42;67.76;98924.56;8018500;29;20061;-84
2022/08/17 08:41:33;;;;;;;14.65;9.93;;;;;;;25.53;67.02;98922.47;8006531;29;20102;-83
2022/08/17 08:45:43;;;;;;;19.20;10.80;;;;;;;25.65;65.79;98927.47;8010332;29;20062;-84
2022/08/17 08:49:55;;;;;;;17.73;9.63;;;;;;;25.77;65.63;98922.59;8001196;29;20057;-84
2022/08/17 08:54:03;;;;;;;14.65;8.70;;;;;;;25.91;63.57;98922.44;8102118;29;20075;-83
2022/08/17 08:58:13;;;;;;;;;;;;;;;25.99;63.13;98923.88;8102441;29;20076;-86
2022/08/17 09:02:48;;;;;;;13.30;8.07;;;;;;;26.15;61.39;98932.38;8183216;28;19921;-85
2022/08/17 09:06:58;;;;;;;12.80;8.40;;;;;;;26.29;60.79;98921.09;8358511;28;20550;-87
2022/08/17 09:11:08;;;;;;;13.80;8.25;;;;;;;26.49;59.82;98924.75;8357440;28;20143;-86
2022/08/17 09:15:26;;;;;;;9.32;7.78;;;;;;;26.69;59.94;98915.75;8523573;27;20054;-86
2022/08/17 09:19:37;;;;;;;12.68;8.82;;;;;;;26.93;58.30;98920.09;8512393;27;20440;-85
2022/08/17 09:24:01;;;;;;;11.55;7.72;;;;;;;27.11;58.57;98920.56;8482143;27;20047;-85
2022/08/17 09:28:19;;;;;;;9.93;7.25;;;;;;;27.26;57.51;98916.31;8510699;27;20054;-84
2022/08/17 09:32:32;;;;;;;;;;;;;;;27.41;57.52;98921.59;8506462;27;20038;-85
2022/08/17 09:36:57;;;;;;;8.95;7.45;;;;;;;27.53;55.81;98916.22;8530740;27;19968;-85
2022/08/17 09:41:21;;;;;;;12.30;7.78;;;;;;;27.67;55.89;98912.38;8515728;27;20053;-86
2022/08/17 09:45:48;;;;;;;10.77;7.60;;;;;;;27.80;55.26;98916.06;8519440;27;20391;-87
2022/08/17 09:49:59;;;;;;;12.90;7.40;;;;;;;27.94;54.50;98906.66;8518952;27;20129;-86
2022/08/17 09:54:00;;;;;;;19.38;9.00;;;;;;;28.07;53.88;98907.56;8519203;27;20130;-86
2022/08/17 09:58:08;;;;;;;12.02;8.57;;;;;;;28.16;53.38;98904.22;8517888;27;20035;-83
2022/08/17 10:02:49;;;;;;;17.33;8.80;;;;;;;28.24;52.51;98905.59;8505421;27;20046;-86
2022/08/17 10:07:03;;;;;;;12.30;8.27;;;;;;;28.33;52.34;98914.91;8398421;28;20420;-85
2022/08/17 10:12:14;;;;;;;9.65;7.78;;;;;;;28.56;51.65;98905.63;8430751;28;20056;-84
2022/08/17 10:15:54;;;;;;;11.27;8.00;;;;;;;28.70;51.08;98910.84;8429753;28;20442;-84
2022/08/17 10:20:04;;;;;;;10.68;6.90;;;;;;;28.93;49.79;98905.09;8429267;28;20414;-86
2022/08/17 10:28:29;;;;;;;12.88;7.65;;;;;;;29.36;47.92;98906.75;8420879;28;20603;-84
2022/08/17 10:32:34;;;;;;;10.77;7.10;;;;;;;29.50;48.54;98908.38;8391134;28;20146;-86
2022/08/17 10:36:54;;;;;;;10.88;6.45;;;;;;;29.74;48.49;98913.22;8471810;27;20145;-85
2022/08/17 10:41:20;;;;;;;15.93;7.32;;;;;;;29.90;46.67;98906.03;8517290;27;20721;-86
2022/08/17 10:45:25;;;;;;;9.93;7.55;;;;;;;30.05;44.67;98901.59;8509199;27;20039;-84
2022/08/17 10:49:32;;;;;;;11.25;7.00;;;;;;;30.12;44.74;98907.75;8502699;27;20102;-85
2022/08/17 10:53:33;;;;;;;13.37;7.03;;;;;;;30.29;45.17;98911.19;8502965;27;20055;-86
2022/08/17 10:57:46;;;;;;;7.60;5.93;;;;;;;30.48;44.10;98924.13;8523396;27;20092;-85
2022/08/17 11:01:57;;;;;;;11.85;6.35;;;;;;;30.68;43.74;98909.16;8518570;27;20042;-85
2022/08/17 11:06:01;;;;;;;10.85;6.57;;;;;;;30.69;43.09;98921.88;8535004;27;20134;-85
2022/08/17 11:10:35;;;;;;;9.35;6.10;;;;;;;30.35;43.30;98925.34;8534670;27;20042;-86
2022/08/17 11:14:56;;;;;;;6.72;6.00;;;;;;;30.09;43.82;98919.75;8496531;27;20047;-86
2022/08/17 11:19:15;;;;;;;9.05;5.60;;;;;;;30.24;43.65;98922.91;8529820;27;20054;-85
2022/08/17 11:23:37;;;;;;;8.10;5.50;;;;;;;30.16;42.11;98924.34;8534109;27;20063;-87
2022/08/17 11:27:39;;;;;;;9.27;7.05;;;;;;;29.74;44.12;98918.78;8519673;27;20047;-86
2022/08/17 11:31:43;;;;;;;9.00;6.80;;;;;;;29.39;46.93;98917.03;8501260;27;20066;-85
2022/08/17 11:35:50;;;;;;;10.02;6.68;;;;;;;29.14;46.27;98911.31;8501658;27;20055;-85
2022/08/17 11:40:10;;;;;;;7.20;6.22;;;;;;;28.90;46.88;98908.78;8453837;27;20069;-85
2022/08/17 11:44:17;;;;;;;7.70;6.07;;;;;;;29.39;44.42;98900.34;8518593;27;20601;-86
2022/08/17 11:52:59;;;;;;;11.43;6.53;;;;;;;29.86;43.76;98905.34;8502875;27;20074;-86
2022/08/17 11:57:28;;;;;;;8.38;6.22;;;;;;;30.23;43.08;98901.06;8505281;27;20128;-86
2022/08/17 12:01:31;;;;;;;10.20;6.07;;;;;;;30.55;42.39;98900.84;8292816;28;20180;-85
2022/08/17 12:05:33;;;;;;;9.38;6.10;;;;;;;30.66;41.57;98897.69;8327205;28;20545;-88
2022/08/17 12:09:38;;;;;;;9.50;6.43;;;;;;;30.75;41.73;98892.22;8326699;28;20530;-86
2022/08/17 12:13:46;;;;;;;8.35;5.85;;;;;;;30.93;41.40;98884.78;8308113;28;20061;-87
2022/08/17 12:17:52;;;;;;;11.15;5.97;;;;;;;31.08;41.18;98876.75;8304499;28;20065;-86
2022/08/17 12:22:04;;;;;;;12.45;6.63;;;;;;;31.02;40.63;98896.06;8319094;28;20049;-86
2022/08/17 12:26:18;;;;;;;7.07;5.97;;;;;;;31.00;40.09;98886.56;8312992;28;20088;-86
2022/08/17 12:30:20;;;;;;;7.97;6.53;;;;;;;30.91;39.91;98889.28;8312079;28;20061;-86
2022/08/17 12:34:46;;;;;;;7.28;5.82;;;;;;;31.01;40.49;98893.69;8317031;28;20049;-86
2022/08/17 12:39:05;;;;;;;7.88;5.90;;;;;;;31.20;40.76;98884.28;8391698;28;20131;-86
2022/08/17 12:43:18;;;;;;;9.13;6.00;;;;;;;31.39;40.22;98885.97;8432553;28;20108;-87
2022/08/17 12:47:19;;;;;;;8.77;6.10;;;;;;;31.50;40.59;98868.06;8441298;28;20498;-86
2022/08/17 12:51:20;;;;;;;11.23;6.22;;;;;;;31.56;40.12;98874.63;8436800;28;20061;-86
2022/08/17 12:55:23;;;;;;;8.43;6.28;;;;;;;31.49;40.18;98860.91;8447057;28;20137;-83
2022/08/17 12:59:24;;;;;;;10.52;6.03;;;;;;;31.30;39.95;98883.09;8448387;28;20056;-86
2022/08/17 13:03:30;;;;;;;10.45;5.97;;;;;;;31.20;39.97;98873.09;8447678;28;20214;-85
2022/08/17 13:07:43;;;;;;;9.05;6.43;;;;;;;31.31;40.46;98887.47;8437057;28;20051;-85
2022/08/17 13:11:58;;;;;;;10.98;6.13;;;;;;;31.53;40.51;98867.13;8429699;28;20489;-86
2022/08/17 13:16:02;;;;;;;9.32;6.20;;;;;;;31.53;39.36;98867.13;8507121;27;21254;-84
2022/08/17 13:20:05;;;;;;;9.93;6.53;;;;;;;31.10;40.09;98868.69;8521414;27;20113;-85
2022/08/17 13:24:16;;;;;;;8.43;6.15;;;;;;;30.67;41.33;98872.16;8477644;27;20108;-84
2022/08/17 13:28:19;;;;;;;10.05;6.95;;;;;;;30.50;42.93;98876.34;8517160;27;20043;-87
2022/08/17 13:32:32;;;;;;;11.57;6.80;;;;;;;30.35;43.13;98870.38;8494935;27;20051;-86
2022/08/17 13:36:33;;;;;;;13.20;6.95;;;;;;;30.39;42.81;98875.88;8511925;27;20054;-86
2022/08/17 13:40:41;;;;;;;11.18;6.68;;;;;;;30.35;44.63;98870.38;8526305;27;20035;-87
2022/08/17 13:44:42;;;;;;;8.07;6.00;;;;;;;30.12;45.77;98871.53;8501103;27;20043;-86
2022/08/17 13:48:43;;;;;;;9.52;6.97;;;;;;;29.92;47.51;98870.19;8529151;27;20118;-86
2022/08/17 13:52:44;;;;;;;10.70;6.82;;;;;;;31.39;45.32;98852.50;8513566;27;20555;-85
2022/08/17 13:57:00;;;;;;;10.30;6.53;;;;;;;34.17;38.46;98859.09;8502870;27;20042;-84
2022/08/17 14:01:46;;;;;;;10.52;6.13;;;;;;;36.11;35.59;98865.03;8535729;27;20034;-86
2022/08/17 14:05:48;;;;;;;7.38;5.90;;;;;;;37.61;33.02;98869.78;8406952;28;20052;-87
2022/08/17 14:10:00;;;;;;;8.73;5.65;;;;;;;38.57;31.48;98857.19;8408315;28;20064;-86
2022/08/17 14:14:03;;;;;;;7.82;5.32;;;;;;;39.08;30.47;98861.75;8410350;28;20584;-86
2022/08/17 14:18:04;;;;;;;7.82;5.32;;;;;;;39.48;29.09;98872.69;8429377;28;20039;-85
2022/08/17 14:22:07;;;;;;;8.13;5.47;;;;;;;39.71;27.07;98861.41;8412672;28;20175;-87
2022/08/17 14:26:09;;;;;;;5.18;4.50;;;;;;;40.46;26.48;98858.25;8424122;28;20044;-87
2022/08/17 14:30:10;;;;;;;8.63;4.18;;;;;;;41.00;27.04;98855.00;8426482;28;20135;-86
2022/08/17 14:34:11;;;;;;;6.88;4.72;;;;;;;41.22;27.45;98854.91;8392690;28;20056;-87
2022/08/17 14:38:13;;;;;;;7.53;4.32;;;;;;;40.47;26.06;98856.97;8427294;28;20127;-86
2022/08/17 14:42:15;;;;;;;7.53;4.32;;;;;;;40.51;25.32;98865.97;8493564;27;20076;-87
2022/08/17 14:46:16;;;;;;;9.15;4.60;;;;;;;40.31;24.91;98863.44;8484044;27;20061;-86
2022/08/17 14:50:18;;;;;;;8.05;4.70;;;;;;;39.66;25.45;98857.28;8525735;27;20031;-87
2022/08/17 14:54:19;;;;;;;5.38;4.30;;;;;;;38.98;26.74;98863.28;8515451;27;20054;-87
2022/08/17 14:58:21;;;;;;;9.98;4.45;;;;;;;38.27;28.37;98857.50;8509533;27;20502;-87
2022/08/17 15:02:28;;;;;;;6.75;4.38;;;;;;;37.63;28.07;98855.97;8528244;27;20046;-86
2022/08/17 15:06:29;;;;;;;6.13;4.57;;;;;;;36.34;29.22;98844.41;8523987;27;20531;-86
2022/08/17 15:10:30;;;;;;;8.70;4.50;;;;;;;36.02;30.22;98853.88;8504484;27;20046;-87
2022/08/17 15:14:34;;;;;;;6.30;4.47;;;;;;;35.49;31.56;98856.78;8514951;27;20047;-87
2022/08/17 15:18:35;;;;;;;5.85;4.22;;;;;;;34.99;31.52;98861.44;8454263;28;20055;-87
2022/08/17 15:22:39;;;;;;;7.80;4.55;;;;;;;34.22;31.99;98856.47;8461581;28;20050;-85
2022/08/17 15:26:40;;;;;;;6.55;4.57;;;;;;;33.76;32.69;98853.03;8461437;28;20430;-86
2022/08/17 15:30:42;;;;;;;9.80;4.95;;;;;;;33.42;34.03;98853.41;8461690;28;20082;-87
2022/08/17 15:34:43;;;;;;;6.97;4.80;;;;;;;33.04;33.75;98849.06;8444765;28;20093;-88
2022/08/17 15:38:45;;;;;;;8.00;5.15;;;;;;;32.78;34.80;98847.06;8461856;28;20511;-87
2022/08/17 15:42:46;;;;;;;9.80;5.40;;;;;;;32.51;34.53;98844.97;8460740;28;20104;-87
2022/08/17 15:46:48;;;;;;;7.57;5.47;;;;;;;32.23;35.29;98853.28;8459562;27;20056;-85
2022/08/17 15:50:49;;;;;;;6.78;5.43;;;;;;;32.02;35.45;98854.09;8533661;27;20058;-86
2022/08/17 15:54:57;;;;;;;8.60;4.93;;;;;;;31.81;35.59;98843.75;8515542;27;20051;-85
2022/08/17 15:58:58;;;;;;;;;;;;;;;31.63;35.98;98860.41;8531982;27;20759;-87
2022/08/17 16:02:59;;;;;;;8.80;5.47;;;;;;;31.50;36.18;98856.91;8513755;27;19919;-85
2022/08/17 16:07:00;;;;;;;7.93;4.93;;;;;;;31.34;36.95;98858.66;8501925;27;20502;-87
2022/08/17 16:11:02;;;;;;;8.32;5.38;;;;;;;31.15;36.82;98856.97;8508047;27;20035;-86
2022/08/17 16:15:04;;;;;;;5.20;4.63;;;;;;;31.06;37.16;98856.91;8505502;27;20057;-87
2022/08/17 16:19:05;;;;;;;11.15;5.45;;;;;;;30.93;37.68;98864.50;8484952;27;20035;-87
2022/08/17 16:23:06;;;;;;;12.32;5.28;;;;;;;30.74;38.41;98862.78;8496620;27;20050;-88
2022/08/17 16:27:07;;;;;;;10.95;5.75;;;;;;;30.59;38.30;98860.47;8505970;27;20080;-86
2022/08/17 16:31:08;;;;;;;8.45;5.40;;;;;;;30.43;38.97;98860.59;8479685;27;20476;-85
2022/08/17 16:35:15;;;;;;;8.23;5.50;;;;;;;30.22;40.47;98866.84;8486441;27;20035;-86
2022/08/17 16:39:16;;;;;;;9.43;5.20;;;;;;;30.00;41.51;98860.38;8512011;27;20387;-86
2022/08/17 16:43:17;;;;;;;7.43;5.35;;;;;;;29.77;41.52;98853.88;8525501;27;20047;-84
2022/08/17 16:47:18;;;;;;;7.20;5.63;;;;;;;29.62;42.72;98860.31;8513473;27;20503;-85
2022/08/17 16:51:20;;;;;;;6.90;5.88;;;;;;;29.43;44.08;98853.72;8509843;27;20077;-84
2022/08/17 16:55:21;;;;;;;7.70;5.78;;;;;;;29.23;45.39;98869.78;8494636;27;20408;-84
2022/08/17 16:59:22;;;;;;;10.60;6.70;;;;;;;29.00;46.84;98862.44;8523134;27;20062;-84
2022/08/17 17:03:24;;;;;;;10.07;6.57;;;;;;;28.82;48.18;98857.34;8507506;27;20138;-85
2022/08/17 17:07:49;;;;;;;11.80;7.45;;;;;;;28.64;49.24;98857.00;8511461;27;20043;-85
2022/08/17 17:11:54;;;;;;;14.57;9.50;;;;;;;28.46;50.44;98862.22;8499532;27;20088;-85
2022/08/17 17:15:58;;;;;;;16.50;9.57;;;;;;;28.27;51.48;98865.88;8504012;27;20046;-85
2022/08/17 17:19:59;;;;;;;21.60;10.15;;;;;;;28.10;52.44;98874.16;8515176;27;20113;-85
2022/08/17 17:24:06;;;;;;;15.23;9.48;;;;;;;27.88;53.76;98867.53;8490509;27;20043;-84
2022/08/17 17:28:18;;;;;;;15.20;9.43;;;;;;;27.68;54.26;98864.00;8520593;27;20051;-85
2022/08/17 17:32:49;;;;;;;15.90;10.70;;;;;;;27.44;55.24;98865.28;8510514;27;20490;-84
2022/08/17 17:36:53;;;;;;;14.20;9.55;;;;;;;27.24;56.35;98857.75;8490530;27;20046;-84
2022/08/17 17:41:00;;;;;;;13.82;8.80;;;;;;;27.06;57.61;98865.63;8446033;28;20480;-85
2022/08/17 17:45:16;;;;;;;15.90;7.18;;;;;;;26.90;58.19;98868.31;8450357;28;20380;-85
2022/08/17 17:49:17;;;;;;;17.83;7.72;;;;;;;26.69;59.13;98871.44;8432202;28;20119;-84
2022/08/17 17:53:22;;;;;;;14.52;8.40;;;;;;;26.49;60.30;98863.81;8405592;28;20059;-84
2022/08/17 17:57:25;;;;;;;10.43;7.35;;;;;;;26.27;60.76;98868.16;8431576;28;20076;-85
2022/08/17 18:01:35;;;;;;;9.98;7.40;;;;;;;26.11;61.19;98868.00;8456501;28;20079;-85
2022/08/17 18:05:56;;;;;;;15.57;8.07;;;;;;;25.97;61.73;98871.72;8436586;28;20054;-84
2022/08/17 18:10:15;;;;;;;21.08;8.48;;;;;;;25.79;62.31;98881.50;8472370;27;20065;-85
2022/08/17 18:14:25;;;;;;;11.15;7.45;;;;;;;25.60;62.89;98882.91;8521525;27;20055;-84
2022/08/17 18:18:36;;;;;;;10.27;7.75;;;;;;;25.44;63.50;98883.47;8503044;27;20053;-84
2022/08/17 18:22:37;;;;;;;10.38;7.72;;;;;;;25.28;63.44;98880.50;8526238;27;20035;-84
2022/08/17 18:26:41;;;;;;;11.52;7.53;;;;;;;25.12;63.39;98883.03;8527042;27;20065;-85
2022/08/17 18:30:42;;;;;;;9.48;7.88;;;;;;;24.96;64.02;98880.03;8528378;27;20457;-84
2022/08/17 18:34:45;;;;;;;12.77;7.95;;;;;;;24.82;64.60;98881.75;8535541;27;20083;-84
2022/08/17 18:38:46;;;;;;;15.00;8.35;;;;;;;24.70;64.86;98879.47;8535092;27;20083;-84
2022/08/17 18:43:09;;;;;;;13.73;9.10;;;;;;;24.61;64.74;98881.94;8520583;27;20094;-85
2022/08/17 18:47:16;;;;;;;12.65;9.13;;;;;;;24.48;64.92;98878.09;8509690;27;20051;-85
2022/08/17 18:51:30;;;;;;;15.88;8.98;;;;;;;24.35;65.63;98885.31;8534256;27;20138;-83
2022/08/17 18:55:31;;;;;;;15.57;9.50;;;;;;;24.26;65.80;98887.75;8506721;27;20126;-85
2022/08/17 18:59:33;;;;;;;13.70;9.20;;;;;;;24.13;66.11;98878.31;8488679;27;20051;-84
2022/08/17 19:03:41;;;;;;;17.10;10.63;;;;;;;23.99;66.45;98891.03;8525439;27;20130;-85
2022/08/17 19:07:44;;;;;;;18.45;9.93;;;;;;;23.90;67.30;98892.66;8506848;27;20441;-83
2022/08/17 19:11:45;;;;;;;15.23;9.07;;;;;;;23.78;67.67;98885.63;8521898;27;20087;-83
2022/08/17 19:15:54;;;;;;;15.82;8.68;;;;;;;23.71;67.30;98885.66;8517122;27;20092;-83
2022/08/17 19:20:02;;;;;;;14.55;8.63;;;;;;;23.67;67.24;98873.88;8500120;27;20468;-84
2022/08/17 19:24:20;;;;;;;12.80;8.95;;;;;;;23.62;66.93;98879.81;8472348;27;20039;-84
2022/08/17 19:28:44;;;;;;;10.50;8.33;;;;;;;23.59;66.94;98886.09;8484585;27;20118;-84
2022/08/17 19:32:45;;;;;;;11.95;8.50;;;;;;;23.53;66.86;98895.97;8477784;27;20293;-84
2022/08/17 19:36:55;;;;;;;11.32;8.93;;;;;;;23.44;66.91;98909.38;8487276;27;20078;-84
2022/08/17 19:41:07;;;;;;;10.40;8.55;;;;;;;23.37;67.50;98912.94;8426353;27;20043;-83
2022/08/17 19:45:40;;;;;;;13.70;9.25;;;;;;;23.32;67.61;98912.59;8470412;27;20054;-84
2022/08/17 19:49:48;;;;;;;13.70;8.30;;;;;;;23.27;67.13;98910.19;8484036;27;20489;-84
2022/08/17 19:54:02;;;;;;;11.65;8.40;;;;;;;23.26;67.08;98925.19;8458284;27;20063;-83